Time;durP1;ratioP1;P1;durP2;ratioP2;P2;SDS_P1;SDS_P2;PMS_P1;PMS_P2;Temp;Humidity;BMP_temperature;BMP_pressure;BME280_temperature;BME280_humidity;BME280_pressure;Samples;Min_cycle;Max_cycle;Signal;HPM_P1;HPM_P2
2023/10/25 00:01:28;;;;;;;4.70;2.07;;;12.20;34.90;;;;;;5045150;28;20861;-66
2023/10/25 00:03:54;;;;;;;5.77;2.30;;;12.20;34.90;;;;;;5044393;28;20492;-65
2023/10/25 00:06:21;;;;;;;4.70;2.33;;;12.20;34.90;;;;;;5040966;28;20469;-65
2023/10/25 00:08:48;;;;;;;5.33;2.43;;;12.20;34.70;;;;;;5045058;28;20464;-65
2023/10/25 00:11:17;;;;;;;4.60;2.27;;;12.10;34.60;;;;;;5037039;28;20893;-65
2023/10/25 00:13:43;;;;;;;6.70;1.80;;;12.10;34.80;;;;;;5041438;28;20501;-65
2023/10/25 00:16:10;;;;;;;4.13;1.83;;;12.10;34.60;;;;;;5044907;28;20865;-65
2023/10/25 00:18:37;;;;;;;6.33;2.77;;;12.00;34.60;;;;;;5044759;28;20461;-65
2023/10/25 00:21:04;;;;;;;5.23;2.53;;;11.90;34.70;;;;;;5043281;28;20485;-65
2023/10/25 00:23:30;;;;;;;5.40;2.50;;;11.90;34.80;;;;;;5045671;28;20489;-66
2023/10/25 00:25:57;;;;;;;4.90;2.40;;;11.80;34.80;;;;;;5042839;28;20478;-65
2023/10/25 00:28:25;;;;;;;5.23;2.50;;;11.80;35.00;;;;;;5044914;28;20465;-65
2023/10/25 00:30:52;;;;;;;4.80;2.50;;;11.80;34.90;;;;;;5039533;28;20486;-65
2023/10/25 00:33:18;;;;;;;5.53;2.70;;;11.80;34.90;;;;;;5035338;28;20459;-65
2023/10/25 00:35:45;;;;;;;4.80;2.33;;;11.70;35.00;;;;;;5038942;28;20493;-65
2023/10/25 00:38:12;;;;;;;4.80;2.70;;;11.70;35.10;;;;;;5044463;28;20813;-66
2023/10/25 00:40:39;;;;;;;4.73;2.57;;;11.70;35.10;;;;;;5043228;28;20454;-65
2023/10/25 00:43:16;;;;;;;5.30;2.73;;;11.70;35.20;;;;;;5044750;28;20469;-65
2023/10/25 00:46:00;;;;;;;4.93;2.90;;;11.70;35.40;;;;;;5046680;28;20477;-65
2023/10/25 00:48:27;;;;;;;5.10;2.10;;;11.70;35.40;;;;;;5043432;28;20454;-65
2023/10/25 00:50:54;;;;;;;4.37;2.40;;;11.70;35.30;;;;;;5051130;28;20481;-65
2023/10/25 00:53:21;;;;;;;5.20;2.60;;;11.70;35.40;;;;;;5048271;28;20873;-65
2023/10/25 00:55:49;;;;;;;4.60;2.40;;;11.80;35.40;;;;;;5047249;28;20486;-66
2023/10/25 00:58:16;;;;;;;6.20;2.80;;;11.70;35.40;;;;;;5047258;28;20899;-65
2023/10/25 01:00:42;;;;;;;7.00;3.80;;;11.70;35.40;;;;;;5052068;28;20469;-65
2023/10/25 01:03:12;;;;;;;7.63;2.63;;;11.70;35.40;;;;;;5047856;28;20836;-65
2023/10/25 01:05:40;;;;;;;5.00;2.70;;;11.60;35.40;;;;;;5044872;28;20470;-65
2023/10/25 01:08:06;;;;;;;7.03;2.90;;;11.60;35.40;;;;;;5045133;28;20458;-65
2023/10/25 01:10:33;;;;;;;4.10;2.20;;;11.60;35.60;;;;;;5046710;28;20854;-65
2023/10/25 01:13:00;;;;;;;5.57;2.63;;;11.60;35.40;;;;;;5044954;28;20458;-65
2023/10/25 01:15:26;;;;;;;4.60;2.30;;;11.50;35.50;;;;;;5047728;28;20490;-65
2023/10/25 01:17:53;;;;;;;4.60;2.17;;;11.40;35.40;;;;;;5049000;28;20837;-65
2023/10/25 01:20:21;;;;;;;5.30;2.77;;;11.40;35.60;;;;;;5043138;28;20454;-65
2023/10/25 01:22:49;;;;;;;5.00;2.73;;;11.30;35.70;;;;;;5046011;28;20949;-65
2023/10/25 01:25:16;;;;;;;6.47;3.33;;;11.30;35.80;;;;;;5046434;28;20477;-65
2023/10/25 01:27:44;;;;;;;8.20;2.40;;;11.30;35.80;;;;;;5049599;28;20458;-65
2023/10/25 01:30:12;;;;;;;4.80;2.80;;;11.20;35.80;;;;;;5047013;28;20474;-65
2023/10/25 01:32:38;;;;;;;4.80;2.67;;;11.20;35.90;;;;;;5045408;28;20450;-65
2023/10/25 01:35:07;;;;;;;5.00;2.77;;;11.20;35.90;;;;;;5043712;28;20489;-65
2023/10/25 01:37:34;;;;;;;5.27;2.93;;;11.10;36.00;;;;;;5047483;28;20454;-65
2023/10/25 01:40:02;;;;;;;5.90;3.13;;;11.10;36.10;;;;;;5047300;28;21030;-65
2023/10/25 01:42:29;;;;;;;6.97;2.90;;;11.10;36.30;;;;;;5043143;28;20838;-65
2023/10/25 01:44:56;;;;;;;5.73;2.80;;;11.00;36.10;;;;;;5019740;28;20479;-65
2023/10/25 01:47:23;;;;;;;4.70;2.53;;;11.00;36.40;;;;;;5041394;28;20488;-65
2023/10/25 01:49:50;;;;;;;6.67;2.60;;;10.90;36.50;;;;;;5048997;28;20484;-65
2023/10/25 01:52:16;;;;;;;5.30;2.60;;;10.90;36.40;;;;;;5049607;28;20473;-65
2023/10/25 01:54:45;;;;;;;5.07;2.70;;;10.90;36.40;;;;;;5041686;28;21007;-65
2023/10/25 01:57:13;;;;;;;5.00;2.97;;;10.90;36.50;;;;;;5041529;28;20466;-65
2023/10/25 01:59:40;;;;;;;4.90;3.00;;;10.90;36.60;;;;;;5048045;28;20998;-65
2023/10/25 02:02:07;;;;;;;4.93;2.50;;;10.90;36.50;;;;;;5041920;28;20478;-65
2023/10/25 02:04:34;;;;;;;5.60;3.13;;;10.80;36.50;;;;;;5046574;28;20989;-65
2023/10/25 02:07:00;;;;;;;4.93;3.03;;;10.80;36.30;;;;;;5046050;28;20485;-65
2023/10/25 02:09:27;;;;;;;7.30;3.60;;;10.80;36.60;;;;;;5043285;28;20470;-65
2023/10/25 02:11:54;;;;;;;5.50;3.70;;;10.70;36.50;;;;;;5048150;28;20470;-65
2023/10/25 02:14:22;;;;;;;5.50;3.47;;;10.70;36.40;;;;;;5043757;28;20483;-65
2023/10/25 02:16:49;;;;;;;5.87;4.20;;;10.70;36.60;;;;;;5038942;28;20541;-65
2023/10/25 02:19:16;;;;;;;7.07;4.47;;;10.70;36.70;;;;;;5043362;28;20458;-65
2023/10/25 02:21:43;;;;;;;6.40;4.40;;;10.70;36.70;;;;;;5046152;28;20466;-65
2023/10/25 02:24:12;;;;;;;8.90;4.40;;;10.60;36.70;;;;;;5042794;28;20482;-65
2023/10/25 02:26:39;;;;;;;7.47;4.30;;;10.60;36.70;;;;;;5038936;28;20984;-65
2023/10/25 02:29:05;;;;;;;7.00;4.10;;;10.50;36.80;;;;;;5042970;28;20470;-65
2023/10/25 02:31:35;;;;;;;6.37;4.00;;;10.50;36.80;;;;;;5044023;28;21001;-65
2023/10/25 02:34:01;;;;;;;6.80;4.60;;;10.50;36.90;;;;;;5040381;28;20469;-65
2023/10/25 02:36:30;;;;;;;8.00;4.30;;;10.50;36.90;;;;;;5037527;28;20477;-66
2023/10/25 02:38:57;;;;;;;8.10;4.90;;;10.50;36.90;;;;;;5045760;28;20462;-65
2023/10/25 02:41:24;;;;;;;9.50;5.10;;;10.50;37.00;;;;;;5046585;28;20454;-65
2023/10/25 02:43:51;;;;;;;6.30;4.17;;;10.50;36.90;;;;;;5044372;28;20807;-65
2023/10/25 02:46:19;;;;;;;6.00;4.30;;;10.50;36.90;;;;;;5045603;28;20458;-65
2023/10/25 02:48:47;;;;;;;6.77;5.47;;;10.50;36.80;;;;;;5045371;28;20494;-65
2023/10/25 02:51:13;;;;;;;7.00;4.70;;;10.50;36.90;;;;;;5042988;28;20525;-65
2023/10/25 02:53:40;;;;;;;8.40;4.80;;;10.50;36.80;;;;;;5044889;28;20476;-65
2023/10/25 02:56:08;;;;;;;8.93;5.23;;;10.50;36.80;;;;;;5045286;28;20982;-65
2023/10/25 02:58:35;;;;;;;8.10;4.47;;;10.50;36.80;;;;;;5045062;28;20459;-65
2023/10/25 03:01:02;;;;;;;7.83;5.33;;;10.50;36.70;;;;;;5036712;28;20471;-65
2023/10/25 03:03:30;;;;;;;7.17;3.80;;;10.60;36.60;;;;;;5046246;28;20556;-65
2023/10/25 03:05:59;;;;;;;6.20;3.90;;;10.50;36.60;;;;;;5043174;28;21140;-65
2023/10/25 03:08:28;;;;;;;5.50;3.53;;;10.50;36.60;;;;;;5040109;28;20462;-65
2023/10/25 03:10:55;;;;;;;6.00;3.90;;;10.50;36.60;;;;;;5035573;28;20490;-65
2023/10/25 03:13:22;;;;;;;5.80;4.17;;;10.50;36.60;;;;;;5034317;28;20493;-65
2023/10/25 03:15:49;;;;;;;5.20;3.50;;;10.40;36.40;;;;;;5036857;28;20990;-65
2023/10/25 03:18:15;;;;;;;6.40;4.00;;;10.40;36.40;;;;;;5035937;28;20466;-65
2023/10/25 03:20:42;;;;;;;5.97;3.93;;;10.40;36.30;;;;;;5038875;28;20467;-65
2023/10/25 03:23:10;;;;;;;6.03;4.00;;;10.40;36.30;;;;;;5040910;28;20852;-65
2023/10/25 03:25:37;;;;;;;6.53;3.90;;;10.40;36.30;;;;;;5040629;28;20486;-65
2023/10/25 03:28:04;;;;;;;6.90;4.10;;;10.30;36.30;;;;;;5040166;28;20978;-65
2023/10/25 03:30:30;;;;;;;6.10;3.17;;;10.30;36.30;;;;;;5039600;28;20466;-65
2023/10/25 03:32:57;;;;;;;8.33;3.97;;;10.30;36.30;;;;;;5040548;28;20880;-65
2023/10/25 03:35:24;;;;;;;7.37;4.90;;;10.30;36.30;;;;;;5044183;28;20474;-64
2023/10/25 03:37:49;;;;;;;6.63;4.30;;;10.30;36.40;;;;;;5041380;28;20466;-65
2023/10/25 03:40:17;;;;;;;5.70;3.50;;;10.30;36.20;;;;;;5044897;28;20465;-65
2023/10/25 03:42:44;;;;;;;6.70;4.57;;;10.20;36.10;;;;;;5043383;28;20200;-65
2023/10/25 03:45:11;;;;;;;7.70;6.10;;;10.20;36.40;;;;;;5034799;28;20486;-65
2023/10/25 03:47:38;;;;;;;7.43;5.40;;;10.20;36.30;;;;;;5040375;28;20474;-64
2023/10/25 03:50:05;;;;;;;6.30;4.87;;;10.20;36.40;;;;;;5043571;28;20454;-64
2023/10/25 03:52:32;;;;;;;6.67;5.37;;;10.10;36.50;;;;;;5040633;28;20877;-64
2023/10/25 03:54:59;;;;;;;7.00;5.00;;;10.10;36.60;;;;;;5041460;28;20482;-64
2023/10/25 03:57:27;;;;;;;7.77;5.40;;;10.10;36.70;;;;;;5045132;28;20458;-64
2023/10/25 03:59:54;;;;;;;7.70;5.30;;;10.20;36.80;;;;;;5051232;28;20508;-65
2023/10/25 04:04:49;;;;;;;6.13;4.30;;;10.10;36.80;;;;;;5001564;28;20479;-65
2023/10/25 04:07:16;;;;;;;7.30;5.23;;;10.10;36.70;;;;;;5007332;28;20466;-65
2023/10/25 04:09:43;;;;;;;6.83;4.50;;;10.10;36.80;;;;;;5005972;28;20467;-65
2023/10/25 04:12:12;;;;;;;6.37;4.67;;;10.10;36.80;;;;;;5007089;28;20480;-65
2023/10/25 04:14:44;;;;;;;6.90;4.87;;;10.00;36.80;;;;;;5006638;28;20487;-65
2023/10/25 04:17:10;;;;;;;6.73;5.00;;;10.00;36.80;;;;;;5006325;28;20987;-64
2023/10/25 04:19:37;;;;;;;7.10;4.67;;;10.00;36.80;;;;;;5004692;28;20463;-65
2023/10/25 04:22:04;;;;;;;8.17;4.60;;;9.90;36.80;;;;;;5000826;28;20518;-63
2023/10/25 04:24:31;;;;;;;7.30;5.10;;;9.90;36.80;;;;;;5008717;28;20486;-64
2023/10/25 04:26:58;;;;;;;8.00;6.10;;;9.90;36.70;;;;;;5008393;28;20456;-64
2023/10/25 04:29:24;;;;;;;10.13;6.40;;;9.80;36.60;;;;;;5005600;28;20460;-64
2023/10/25 04:31:52;;;;;;;5.93;4.40;;;9.80;36.60;;;;;;5005873;28;20475;-66
2023/10/25 04:34:19;;;;;;;7.77;4.37;;;9.80;36.50;;;;;;5008271;28;20490;-65
2023/10/25 04:36:46;;;;;;;7.70;4.80;;;9.80;36.60;;;;;;5008131;28;20463;-65
2023/10/25 04:39:12;;;;;;;8.13;4.00;;;9.80;36.60;;;;;;5005745;28;20464;-65
2023/10/25 04:41:40;;;;;;;6.13;3.90;;;9.70;36.30;;;;;;5006936;28;20451;-65
2023/10/25 04:44:07;;;;;;;6.50;3.93;;;9.60;36.20;;;;;;5007010;28;20892;-65
2023/10/25 04:46:33;;;;;;;14.37;4.47;;;9.50;36.30;;;;;;5007165;28;20471;-64
2023/10/25 04:49:02;;;;;;;33.40;4.70;;;9.50;36.30;;;;;;5000752;28;20794;-64
2023/10/25 04:51:29;;;;;;;12.63;3.37;;;9.50;36.30;;;;;;5006015;28;20492;-64
2023/10/25 04:53:55;;;;;;;5.40;2.80;;;9.40;36.00;;;;;;5003947;28;20479;-64
2023/10/25 04:56:23;;;;;;;11.60;4.53;;;9.40;36.00;;;;;;5007311;28;20985;-64
2023/10/25 04:58:50;;;;;;;9.00;5.10;;;9.30;36.00;;;;;;5008827;28;20471;-66
2023/10/25 05:01:16;;;;;;;25.93;6.13;;;9.30;35.90;;;;;;5006972;28;20980;-66
2023/10/25 05:03:44;;;;;;;16.50;5.67;;;9.30;36.00;;;;;;5001287;28;20468;-64
2023/10/25 05:06:12;;;;;;;15.97;5.10;;;9.30;36.00;;;;;;5001681;28;20539;-66
2023/10/25 05:08:40;;;;;;;10.30;5.53;;;9.30;36.10;;;;;;5003165;28;20468;-66
2023/10/25 05:11:08;;;;;;;10.60;6.07;;;9.30;36.10;;;;;;5004269;28;20480;-66
2023/10/25 05:13:36;;;;;;;22.87;5.80;;;9.30;36.10;;;;;;5006706;28;20471;-65
2023/10/25 05:16:04;;;;;;;10.07;5.30;;;9.30;36.10;;;;;;5002462;28;21017;-65
2023/10/25 05:18:31;;;;;;;12.13;4.67;;;9.30;36.20;;;;;;5007083;28;20546;-65
2023/10/25 05:20:58;;;;;;;7.10;4.77;;;9.30;36.30;;;;;;5007215;28;20542;-65
2023/10/25 05:23:29;;;;;;;9.60;5.47;;;9.30;36.10;;;;;;5004087;28;20476;-65
2023/10/25 05:25:57;;;;;;;12.40;5.40;;;9.20;36.10;;;;;;5000902;28;20488;-65
2023/10/25 05:28:25;;;;;;;16.00;5.57;;;9.20;36.10;;;;;;5002990;28;20468;-66
2023/10/25 05:30:55;;;;;;;10.33;8.30;;;9.20;36.10;;;;;;4999488;28;20486;-65
2023/10/25 05:33:24;;;;;;;12.33;6.40;;;9.20;36.10;;;;;;5006496;28;20495;-64
2023/10/25 05:35:51;;;;;;;8.53;5.60;;;9.20;36.10;;;;;;5008383;28;20533;-66
2023/10/25 05:38:19;;;;;;;8.10;5.50;;;9.20;36.20;;;;;;5004593;28;20464;-66
2023/10/25 05:40:49;;;;;;;10.27;5.43;;;9.20;36.10;;;;;;5012658;28;20460;-65
2023/10/25 05:43:16;;;;;;;7.33;4.90;;;9.10;36.10;;;;;;5009438;28;20495;-65
2023/10/25 05:45:43;;;;;;;8.33;4.70;;;9.10;36.10;;;;;;5021436;28;20484;-65
2023/10/25 05:48:15;;;;;;;7.50;4.93;;;9.00;36.00;;;;;;5011880;28;20508;-65
2023/10/25 05:50:44;;;;;;;12.07;5.93;;;9.00;36.10;;;;;;5008787;28;20503;-66
2023/10/25 05:53:12;;;;;;;14.33;6.23;;;9.00;36.10;;;;;;5015936;28;20473;-65
2023/10/25 05:55:41;;;;;;;13.60;6.67;;;9.00;36.10;;;;;;5010797;28;20538;-64
2023/10/25 05:58:10;;;;;;;29.53;6.87;;;9.00;36.10;;;;;;5014736;28;20469;-65
2023/10/25 06:00:37;;;;;;;51.20;8.73;;;9.00;36.20;;;;;;5004526;28;21007;-66
2023/10/25 06:03:04;;;;;;;11.73;7.20;;;9.00;36.10;;;;;;5006067;28;20459;-65
2023/10/25 06:05:34;;;;;;;49.33;8.60;;;9.10;36.20;;;;;;5007939;28;20490;-65
2023/10/25 06:08:01;;;;;;;27.47;7.10;;;9.10;36.20;;;;;;5007899;28;20482;-65
2023/10/25 06:10:28;;;;;;;28.03;7.37;;;9.20;36.20;;;;;;5013577;28;20467;-65
2023/10/25 06:12:55;;;;;;;46.13;7.83;;;9.20;36.30;;;;;;5005559;28;20484;-65
2023/10/25 06:15:24;;;;;;;31.37;6.43;;;9.20;36.50;;;;;;5016094;28;20515;-65
2023/10/25 06:17:52;;;;;;;32.00;6.37;;;9.20;36.60;;;;;;5009963;28;20812;-65
2023/10/25 06:20:20;;;;;;;17.10;5.60;;;9.30;36.70;;;;;;5010362;28;20482;-65
2023/10/25 06:22:47;;;;;;;101.30;8.77;;;9.40;36.60;;;;;;5008243;28;20455;-65
2023/10/25 06:25:14;;;;;;;101.57;7.83;;;9.40;36.60;;;;;;5010868;28;20634;-65
2023/10/25 06:27:40;;;;;;;54.23;6.57;;;9.50;36.70;;;;;;5007574;28;20479;-65
2023/10/25 06:30:08;;;;;;;43.60;7.03;;;9.50;36.40;;;;;;5009397;28;20459;-65
2023/10/25 06:32:37;;;;;;;14.67;6.53;;;9.60;36.50;;;;;;5006576;28;20482;-65
2023/10/25 06:35:04;;;;;;;30.47;7.30;;;9.70;35.80;;;;;;5011282;28;20479;-65
2023/10/25 06:37:31;;;;;;;10.43;5.40;;;9.90;35.70;;;;;;5013093;28;20464;-65
2023/10/25 06:39:59;;;;;;;9.80;6.67;;;10.10;36.00;;;;;;5004633;28;20828;-65
2023/10/25 06:42:26;;;;;;;9.70;6.10;;;10.20;35.90;;;;;;5010595;28;21094;-65
2023/10/25 06:44:53;;;;;;;9.90;6.37;;;10.50;36.10;;;;;;5008664;28;20491;-65
2023/10/25 06:47:20;;;;;;;12.23;6.20;;;10.70;36.30;;;;;;5005770;28;20873;-65
2023/10/25 06:49:49;;;;;;;6.90;4.93;;;10.80;35.90;;;;;;5012121;28;20937;-65
2023/10/25 06:52:16;;;;;;;7.23;4.47;;;11.10;35.10;;;;;;5006319;28;20507;-65
2023/10/25 06:54:43;;;;;;;5.80;3.73;;;11.30;34.20;;;;;;5008355;28;20483;-65
2023/10/25 06:57:11;;;;;;;5.70;3.47;;;11.40;33.90;;;;;;5004102;28;20859;-65
2023/10/25 06:59:38;;;;;;;6.03;2.90;;;11.80;33.20;;;;;;5009729;28;20456;-65
2023/10/25 07:02:20;;;;;;;14.30;3.20;;;11.80;32.30;;;;;;5014243;28;21193;-65
2023/10/25 07:04:56;;;;;;;7.70;2.30;;;11.80;30.50;;;;;;5006315;28;20480;-65
2023/10/25 07:07:26;;;;;;;15.23;3.30;;;11.80;30.40;;;;;;5016084;28;20462;-65
2023/10/25 07:09:53;;;;;;;26.70;3.40;;;11.90;30.20;;;;;;5008056;28;20959;-65
2023/10/25 07:12:20;;;;;;;53.60;5.30;;;11.90;29.90;;;;;;5007283;28;20479;-65
2023/10/25 07:14:47;;;;;;;21.40;5.13;;;11.90;29.80;;;;;;5001975;28;20479;-65
2023/10/25 07:17:14;;;;;;;29.97;4.43;;;12.00;30.10;;;;;;5012736;28;20848;-66
2023/10/25 07:19:43;;;;;;;40.73;4.90;;;12.20;29.50;;;;;;5010228;28;20472;-66
2023/10/25 07:22:11;;;;;;;26.47;4.10;;;12.30;29.60;;;;;;5009394;28;20459;-64
2023/10/25 07:24:38;;;;;;;8.30;3.67;;;12.40;29.30;;;;;;5006775;28;20490;-66
2023/10/25 07:27:05;;;;;;;15.00;5.10;;;12.50;29.40;;;;;;5014958;28;20534;-64
2023/10/25 07:29:32;;;;;;;25.40;4.60;;;12.50;29.10;;;;;;5007818;28;20459;-64
2023/10/25 07:31:58;;;;;;;20.17;6.93;;;12.50;29.20;;;;;;5004830;28;20482;-66
2023/10/25 07:34:25;;;;;;;10.03;4.50;;;12.60;29.20;;;;;;5005798;28;20495;-66
2023/10/25 07:36:52;;;;;;;56.23;7.73;;;12.70;29.00;;;;;;5004954;28;20468;-65
2023/10/25 07:39:20;;;;;;;10.33;4.70;;;12.70;28.50;;;;;;5005764;28;20460;-64
2023/10/25 07:41:46;;;;;;;12.23;5.33;;;12.70;28.00;;;;;;5008054;28;20947;-64
2023/10/25 07:44:13;;;;;;;55.67;6.43;;;12.70;28.00;;;;;;5007843;28;20479;-64
2023/10/25 07:46:40;;;;;;;39.03;4.80;;;12.70;27.70;;;;;;5007246;28;20463;-64
2023/10/25 07:49:07;;;;;;;38.30;6.60;;;12.70;27.50;;;;;;5006345;28;20514;-64
2023/10/25 07:51:36;;;;;;;59.67;6.20;;;12.70;27.50;;;;;;5004556;28;20464;-66
2023/10/25 07:54:02;;;;;;;9.97;4.67;;;12.80;27.30;;;;;;5002717;28;20488;-66
2023/10/25 07:56:30;;;;;;;8.93;3.97;;;13.20;28.00;;;;;;5005158;28;20990;-65
2023/10/25 07:58:57;;;;;;;6.97;3.50;;;13.70;26.90;;;;;;5004945;28;20475;-64
2023/10/25 08:01:24;;;;;;;7.00;3.80;;;14.20;24.50;;;;;;5023075;23;20451;-65
2023/10/25 08:03:51;;;;;;;7.57;4.10;;;14.40;23.10;;;;;;5019581;28;20474;-65
2023/10/25 08:06:18;;;;;;;7.00;4.33;;;14.20;22.60;;;;;;5022678;28;20458;-65
2023/10/25 08:08:44;;;;;;;10.20;4.80;;;14.20;22.80;;;;;;5023127;28;20466;-65
2023/10/25 08:11:11;;;;;;;8.90;4.47;;;14.10;23.10;;;;;;5017918;28;20655;-65
2023/10/25 08:13:42;;;;;;;13.63;6.20;;;14.10;23.10;;;;;;5022292;28;20996;-65
2023/10/25 08:16:09;;;;;;;19.63;5.43;;;14.00;23.10;;;;;;5027256;28;20517;-65
2023/10/25 08:18:36;;;;;;;29.77;5.40;;;14.00;22.50;;;;;;5020531;28;20492;-66
2023/10/25 08:21:03;;;;;;;11.07;5.13;;;13.90;22.50;;;;;;5018699;28;20455;-65
2023/10/25 08:23:30;;;;;;;10.23;5.30;;;13.80;22.70;;;;;;5024709;28;20544;-65
2023/10/25 08:26:00;;;;;;;7.00;5.30;;;13.90;23.70;;;;;;5013944;28;20854;-66
2023/10/25 08:28:27;;;;;;;7.30;4.80;;;14.10;23.70;;;;;;5020469;28;20487;-66
2023/10/25 08:30:55;;;;;;;29.13;5.40;;;14.30;22.60;;;;;;5016926;28;20468;-66
2023/10/25 08:33:21;;;;;;;22.60;5.43;;;14.30;22.50;;;;;;5026225;28;20486;-66
2023/10/25 08:35:48;;;;;;;9.77;4.97;;;14.30;22.40;;;;;;5018913;28;20486;-66
2023/10/25 08:38:15;;;;;;;14.57;5.23;;;14.30;22.40;;;;;;5020000;28;20459;-66
2023/10/25 08:40:42;;;;;;;25.67;5.33;;;14.30;22.30;;;;;;5021310;28;20463;-65
2023/10/25 08:43:08;;;;;;;7.10;5.50;;;14.20;22.30;;;;;;5023802;28;20537;-65
2023/10/25 08:45:35;;;;;;;17.73;5.80;;;14.10;22.50;;;;;;5019308;28;20479;-66
2023/10/25 08:48:05;;;;;;;14.33;5.33;;;14.10;22.70;;;;;;5020776;28;20470;-66
2023/10/25 08:50:32;;;;;;;7.60;5.77;;;14.10;22.80;;;;;;5024397;28;20470;-65
2023/10/25 08:52:59;;;;;;;11.50;4.90;;;14.10;24.00;;;;;;5021283;28;20506;-65
2023/10/25 08:55:26;;;;;;;19.87;5.53;;;14.10;23.60;;;;;;5014246;28;20478;-67
2023/10/25 08:57:56;;;;;;;11.50;5.20;;;14.10;24.00;;;;;;5020394;28;20459;-65
2023/10/25 09:00:23;;;;;;;7.77;5.20;;;14.20;23.50;;;;;;5022566;28;20975;-65
2023/10/25 09:02:50;;;;;;;6.93;4.87;;;14.40;24.10;;;;;;5020711;28;20463;-65
2023/10/25 09:05:18;;;;;;;30.43;5.43;;;14.80;24.10;;;;;;5022113;28;20475;-64
2023/10/25 09:07:45;;;;;;;11.80;5.03;;;15.10;23.10;;;;;;5024149;28;20455;-64
2023/10/25 09:10:15;;;;;;;11.10;5.63;;;15.10;22.40;;;;;;5027686;28;20466;-64
2023/10/25 09:12:42;;;;;;;7.30;5.70;;;15.50;22.00;;;;;;5028513;28;20994;-64
2023/10/25 09:15:09;;;;;;;13.37;6.20;;;15.80;20.90;;;;;;5024841;28;20486;-64
2023/10/25 09:17:36;;;;;;;9.03;5.97;;;15.90;19.70;;;;;;5027175;28;20458;-64
2023/10/25 09:20:07;;;;;;;12.00;5.63;;;16.00;19.00;;;;;;5026068;28;20821;-64
2023/10/25 09:22:35;;;;;;;12.43;5.53;;;16.10;19.10;;;;;;5015937;28;20452;-65
2023/10/25 09:25:03;;;;;;;7.30;5.57;;;16.30;18.30;;;;;;5026271;28;20481;-65
2023/10/25 09:27:30;;;;;;;7.80;5.80;;;16.30;17.90;;;;;;5022265;28;20543;-64
2023/10/25 09:30:13;;;;;;;10.00;5.13;;;16.50;18.10;;;;;;5019577;28;20554;-65
2023/10/25 09:32:41;;;;;;;6.60;5.33;;;16.60;17.70;;;;;;5019444;28;20562;-65
2023/10/25 09:35:09;;;;;;;7.20;5.67;;;16.50;17.50;;;;;;5028602;28;20516;-64
2023/10/25 09:37:37;;;;;;;7.27;5.40;;;16.40;17.40;;;;;;5020110;28;20462;-64
2023/10/25 09:40:04;;;;;;;6.77;5.53;;;16.30;18.00;;;;;;5026114;28;20816;-64
2023/10/25 09:42:35;;;;;;;7.47;6.27;;;16.20;18.10;;;;;;5029575;28;20835;-65
2023/10/25 09:45:04;;;;;;;7.90;6.60;;;16.00;18.40;;;;;;5026157;28;20478;-65
2023/10/25 09:47:36;;;;;;;8.23;6.77;;;15.80;18.90;;;;;;5019583;28;20471;-64
2023/10/25 09:50:07;;;;;;;8.17;6.80;;;15.50;19.50;;;;;;5026314;28;20494;-64
2023/10/25 09:52:39;;;;;;;8.93;6.73;;;15.40;20.10;;;;;;5029552;28;20478;-64
2023/10/25 09:55:13;;;;;;;8.80;7.70;;;15.20;21.30;;;;;;5020560;28;20482;-64
2023/10/25 09:57:42;;;;;;;11.67;9.33;;;15.10;21.80;;;;;;5021276;28;20840;-64
2023/10/25 10:00:10;;;;;;;11.63;8.60;;;15.10;22.30;;;;;;5026532;28;20455;-64
2023/10/25 10:02:45;;;;;;;11.73;9.60;;;15.10;23.10;;;;;;5021604;28;20474;-65
2023/10/25 10:05:22;;;;;;;10.60;7.53;;;15.50;23.40;;;;;;5028550;28;21068;-65
2023/10/25 10:08:00;;;;;;;11.33;8.50;;;15.70;22.10;;;;;;5030530;28;20459;-65
2023/10/25 10:10:33;;;;;;;8.60;7.37;;;15.70;22.30;;;;;;5028465;28;20466;-65
2023/10/25 10:12:59;;;;;;;10.50;9.00;;;15.80;22.20;;;;;;5024355;28;20478;-65
2023/10/25 10:15:58;;;;;;;10.07;8.00;;;15.80;22.20;;;;;;5024097;28;20478;-64
2023/10/25 10:18:28;;;;;;;9.10;7.30;;;15.80;22.50;;;;;;5020958;28;20467;-65
2023/10/25 10:21:00;;;;;;;10.37;8.03;;;15.60;22.60;;;;;;5021244;28;20972;-64
2023/10/25 10:23:36;;;;;;;8.17;7.13;;;15.50;23.10;;;;;;5022421;28;20479;-64
2023/10/25 10:26:04;;;;;;;8.40;7.33;;;15.50;23.60;;;;;;5025160;28;20478;-64
2023/10/25 10:28:42;;;;;;;9.60;6.70;;;15.50;23.30;;;;;;5020248;28;20523;-64
2023/10/25 10:31:10;;;;;;;10.60;7.37;;;15.60;23.00;;;;;;5020936;28;20502;-64
2023/10/25 10:33:43;;;;;;;9.97;6.80;;;15.70;23.40;;;;;;5026002;28;20501;-64
2023/10/25 10:36:10;;;;;;;9.73;6.97;;;15.80;23.80;;;;;;5016544;28;20500;-64
2023/10/25 10:39:12;;;;;;;9.10;5.77;;;16.00;23.80;;;;;;5024445;28;20462;-65
2023/10/25 10:41:39;;;;;;;8.40;6.73;;;16.40;23.90;;;;;;5012344;28;20492;-65
2023/10/25 10:44:06;;;;;;;7.57;6.00;;;17.00;22.30;;;;;;5029157;28;20471;-64
2023/10/25 10:46:38;;;;;;;9.77;6.00;;;17.40;20.60;;;;;;5018557;28;20460;-65
2023/10/25 10:49:11;;;;;;;5.30;3.50;;;17.80;19.70;;;;;;5021791;28;20456;-65
2023/10/25 10:51:38;;;;;;;5.20;3.20;;;18.20;18.00;;;;;;5025494;28;20490;-64
2023/10/25 10:54:06;;;;;;;6.80;2.90;;;18.50;16.70;;;;;;5026159;28;20525;-64
2023/10/25 10:56:35;;;;;;;9.03;5.67;;;18.60;14.90;;;;;;5029306;28;20451;-64
2023/10/25 10:59:02;;;;;;;5.90;3.53;;;18.50;15.50;;;;;;5027079;28;20522;-64
2023/10/25 11:01:29;;;;;;;6.57;4.50;;;18.40;15.00;;;;;;5021354;28;20487;-64
2023/10/25 11:03:58;;;;;;;7.40;2.80;;;18.20;15.60;;;;;;5022222;28;20460;-65
2023/10/25 11:06:25;;;;;;;5.07;3.37;;;18.10;15.90;;;;;;5019541;28;20525;-64
2023/10/25 11:08:52;;;;;;;5.30;2.90;;;18.10;15.80;;;;;;5023688;28;20550;-65
2023/10/25 11:11:20;;;;;;;4.47;2.40;;;18.00;15.80;;;;;;5020350;28;20464;-64
2023/10/25 11:13:49;;;;;;;4.70;2.60;;;18.00;16.00;;;;;;5025227;28;20889;-65
2023/10/25 11:16:16;;;;;;;4.93;2.53;;;18.00;15.90;;;;;;5025596;28;20463;-64
2023/10/25 11:18:43;;;;;;;7.17;2.47;;;18.00;15.10;;;;;;5023829;28;20552;-64
2023/10/25 11:21:09;;;;;;;5.20;2.73;;;17.90;15.80;;;;;;5020765;28;21004;-64
2023/10/25 11:23:36;;;;;;;6.50;1.93;;;17.80;13.80;;;;;;5026340;28;20458;-64
2023/10/25 11:26:04;;;;;;;3.70;2.00;;;17.80;15.00;;;;;;5020569;28;20475;-64
2023/10/25 11:28:31;;;;;;;4.40;2.27;;;18.00;14.30;;;;;;5017969;28;20590;-65
2023/10/25 11:31:03;;;;;;;4.03;1.80;;;17.90;13.70;;;;;;5027262;28;20478;-64
2023/10/25 11:33:30;;;;;;;5.80;2.20;;;17.80;14.60;;;;;;5025550;28;20493;-64
2023/10/25 11:35:57;;;;;;;4.17;2.07;;;17.70;15.70;;;;;;5022522;28;21102;-64
2023/10/25 11:38:24;;;;;;;4.73;2.10;;;17.60;15.80;;;;;;5026511;28;20881;-64
2023/10/25 11:40:52;;;;;;;3.90;2.10;;;17.70;15.50;;;;;;5023425;28;20487;-66
2023/10/25 11:43:18;;;;;;;4.13;2.37;;;17.60;15.80;;;;;;5020361;28;20490;-66
2023/10/25 11:45:46;;;;;;;4.00;2.10;;;17.60;16.00;;;;;;5016041;28;20492;-64
2023/10/25 11:48:14;;;;;;;4.73;1.97;;;17.70;16.00;;;;;;5027909;28;20829;-65
2023/10/25 11:50:46;;;;;;;5.07;2.47;;;17.70;15.80;;;;;;5020830;28;20468;-65
2023/10/25 11:53:15;;;;;;;5.60;2.00;;;17.80;16.00;;;;;;5010808;28;20487;-64
2023/10/25 11:55:42;;;;;;;4.50;1.83;;;17.90;15.80;;;;;;5024561;28;20478;-64
2023/10/25 11:58:15;;;;;;;4.77;2.00;;;18.10;16.70;;;;;;5024935;28;20455;-64
2023/10/25 12:00:41;;;;;;;3.97;1.70;;;18.20;15.90;;;;;;5014247;28;20530;-64
2023/10/25 12:03:08;;;;;;;3.93;1.83;;;18.20;15.20;;;;;;5019271;28;20464;-64
2023/10/25 12:05:37;;;;;;;4.23;1.90;;;18.20;15.60;;;;;;5027587;28;20494;-63
2023/10/25 12:08:04;;;;;;;4.50;1.70;;;18.20;15.60;;;;;;5022655;28;20501;-64
2023/10/25 12:10:33;;;;;;;4.07;1.50;;;18.20;14.90;;;;;;5019420;28;20452;-64
2023/10/25 12:12:59;;;;;;;4.90;2.00;;;18.30;15.00;;;;;;5014168;28;20464;-64
2023/10/25 12:15:26;;;;;;;3.43;1.03;;;18.40;14.50;;;;;;5011155;28;20994;-63
2023/10/25 12:17:53;;;;;;;5.53;1.60;;;18.40;14.90;;;;;;5020096;28;20467;-63
2023/10/25 12:20:19;;;;;;;3.30;0.90;;;18.50;14.60;;;;;;5024659;28;20459;-64
2023/10/25 12:22:48;;;;;;;3.20;1.00;;;18.40;12.30;;;;;;5020652;28;20466;-64
2023/10/25 12:25:14;;;;;;;3.40;0.90;;;18.30;12.70;;;;;;5014403;28;20483;-63
2023/10/25 12:27:42;;;;;;;3.00;0.90;;;18.30;12.90;;;;;;5021025;28;20478;-63
2023/10/25 12:30:09;;;;;;;5.03;1.00;;;18.20;12.90;;;;;;5014115;28;20471;-63
2023/10/25 12:32:36;;;;;;;3.10;0.70;;;18.10;12.80;;;;;;5023063;28;20466;-63
2023/10/25 12:35:03;;;;;;;3.37;0.80;;;18.00;12.70;;;;;;5022471;28;20482;-64
2023/10/25 12:37:30;;;;;;;3.10;0.80;;;18.00;12.50;;;;;;5024492;28;20689;-64
2023/10/25 12:39:58;;;;;;;3.70;0.90;;;17.90;12.70;;;;;;5018384;28;20514;-64
2023/10/25 12:42:25;;;;;;;4.00;0.83;;;18.00;12.90;;;;;;5022333;28;20454;-64
2023/10/25 12:44:53;;;;;;;3.00;0.70;;;18.10;12.40;;;;;;5014045;28;20990;-64
2023/10/25 12:47:22;;;;;;;3.10;0.80;;;18.10;12.20;;;;;;5022446;28;20462;-64
2023/10/25 12:49:49;;;;;;;2.90;0.80;;;18.10;12.30;;;;;;5023762;28;20969;-64
2023/10/25 12:52:16;;;;;;;3.17;0.80;;;18.10;12.60;;;;;;5017101;28;20470;-64